SNOW

Not for real navigation. The accuracy of this data is not assured See disclaimer for more information



ICAO NAME COUNTRY WIND Kt GUST Kt VIS m TEMP/DEW C BARO METAR
SCRM 13 0 3000 -18/-21 29.09 SCRM 281200Z 08013KT 3000 SN SCT002 OVC010 M18/M21 Q0985
CYHK Gjoa Haven Airport Canada 20 0 8000 3/2 29.81 CYHK 281200Z CCA 30020KT 5SM -RA OVC006 03/02 A2981 RMK ST8 5.5/2.0/TR/0 SNW CVR/NIL SLP102
NZCM Williams Field Antarctica 7 0 8000 -14/-14 28.87 NZCM 281155Z 11007KT 8000 -SN OVC055 M14/M14 A2887 RMK SNB0845 SLP782
CYVM Broughton Island Airport Canada 4 0 24000 4/2 29.68 CYVM 281200Z 03004KT 15SM FEW100 04/02 A2968 RMK AC1 8.0/1.6/0.0/0 SNW COV/NIL SLP054
CYYJ Victoria Int. Airport, B. C. Canada 0 0 32767 11/10 30.09 CYYJ 281200Z 00000KT 30SM FEW040 FEW250 11/10 A3009 RMK SC1CI1 SC TR /SNSHN143/ SLP190

Show more